sensor_id;sensor_type;location;lat;lon;timestamp;pressure;altitude;pressure_sealevel;temperature;humidity
15674;BME280;7937;48.090;16.212;2023-04-07T00:01:41;97487.06;;;2.64;43.92
15674;BME280;7937;48.090;16.212;2023-04-07T00:04:43;97577.72;;;3.16;45.39
15674;BME280;7937;48.090;16.212;2023-04-07T00:07:46;97688.97;;;3.85;43.80
15674;BME280;7937;48.090;16.212;2023-04-07T00:10:57;97640.63;;;3.58;43.50
15674;BME280;7937;48.090;16.212;2023-04-07T00:13:59;97631.34;;;3.56;43.90
15674;BME280;7937;48.090;16.212;2023-04-07T00:17:01;97624.84;;;3.58;43.27
15674;BME280;7937;48.090;16.212;2023-04-07T00:20:04;97659.94;;;3.66;43.46
15674;BME280;7937;48.090;16.212;2023-04-07T00:23:06;97688.97;;;3.99;43.24
15674;BME280;7937;48.090;16.212;2023-04-07T00:26:08;97467.16;;;2.48;43.44
15674;BME280;7937;48.090;16.212;2023-04-07T00:29:11;97644.50;;;3.69;43.55
15674;BME280;7937;48.090;16.212;2023-04-07T00:32:13;97640.63;;;3.52;43.59
15674;BME280;7937;48.090;16.212;2023-04-07T00:35:16;97725.94;;;4.19;44.12
15674;BME280;7937;48.090;16.212;2023-04-07T00:38:18;97646.94;;;3.57;43.96
15674;BME280;7937;48.090;16.212;2023-04-07T00:41:20;97733.63;;;4.07;44.52
15674;BME280;7937;48.090;16.212;2023-04-07T00:44:22;97566.34;;;3.08;44.81
15674;BME280;7937;48.090;16.212;2023-04-07T00:47:24;97524.28;;;2.67;45.06
15674;BME280;7937;48.090;16.212;2023-04-07T00:50:26;97673.69;;;3.68;44.92
15674;BME280;7937;48.090;16.212;2023-04-07T00:53:29;97486.41;;;2.55;44.65
15674;BME280;7937;48.090;16.212;2023-04-07T00:56:34;97599.63;;;3.23;44.65
15674;BME280;7937;48.090;16.212;2023-04-07T00:59:37;97498.59;;;2.63;44.62
15674;BME280;7937;48.090;16.212;2023-04-07T01:02:41;97701.72;;;3.88;45.48
15674;BME280;7937;48.090;16.212;2023-04-07T01:05:52;97636.53;;;3.43;45.95
15674;BME280;7937;48.090;16.212;2023-04-07T01:09:04;97636.34;;;3.44;47.29
15674;BME280;7937;48.090;16.212;2023-04-07T01:15:30;97550.94;;;2.99;45.55
15674;BME280;7937;48.090;16.212;2023-04-07T01:18:35;97697.25;;;3.82;45.39
15674;BME280;7937;48.090;16.212;2023-04-07T01:21:41;97640.78;;;3.44;45.59
15674;BME280;7937;48.090;16.212;2023-04-07T01:31:08;97596.56;;;3.19;45.51
15674;BME280;7937;48.090;16.212;2023-04-07T01:34:12;97599.97;;;3.13;45.14
15674;BME280;7937;48.090;16.212;2023-04-07T01:37:16;97629.66;;;3.42;45.45
15674;BME280;7937;48.090;16.212;2023-04-07T01:40:19;97617.03;;;3.24;45.71
15674;BME280;7937;48.090;16.212;2023-04-07T01:43:23;97531.81;;;2.77;45.88
15674;BME280;7937;48.090;16.212;2023-04-07T01:46:27;97572.19;;;3.04;46.01
15674;BME280;7937;48.090;16.212;2023-04-07T01:49:30;97598.16;;;3.14;45.48
15674;BME280;7937;48.090;16.212;2023-04-07T01:52:34;97470.28;;;2.23;45.74
15674;BME280;7937;48.090;16.212;2023-04-07T01:55:38;97594.34;;;3.16;45.67
15674;BME280;7937;48.090;16.212;2023-04-07T01:58:42;97621.13;;;3.33;45.68
15674;BME280;7937;48.090;16.212;2023-04-07T02:01:48;97585.63;;;3.16;44.79
15674;BME280;7937;48.090;16.212;2023-04-07T02:04:56;97536.53;;;2.88;45.37
15674;BME280;7937;48.090;16.212;2023-04-07T02:08:02;97610.94;;;3.17;45.35
15674;BME280;7937;48.090;16.212;2023-04-07T02:11:10;97591.63;;;3.03;45.87
15674;BME280;7937;48.090;16.212;2023-04-07T02:14:14;97588.00;;;3.04;45.34
15674;BME280;7937;48.090;16.212;2023-04-07T02:17:32;97681.44;;;3.82;45.42
15674;BME280;7937;48.090;16.212;2023-04-07T02:20:36;97583.75;;;3.03;45.51
15674;BME280;7937;48.090;16.212;2023-04-07T02:23:38;97508.53;;;2.74;45.27
15674;BME280;7937;48.090;16.212;2023-04-07T02:26:41;97638.59;;;3.47;45.75
15674;BME280;7937;48.090;16.212;2023-04-07T02:29:44;97565.88;;;2.92;46.84
15674;BME280;7937;48.090;16.212;2023-04-07T02:32:46;97572.38;;;2.96;47.37
15674;BME280;7937;48.090;16.212;2023-04-07T02:35:48;97480.97;;;2.56;45.04
15674;BME280;7937;48.090;16.212;2023-04-07T02:38:50;97403.72;;;2.16;45.63
15674;BME280;7937;48.090;16.212;2023-04-07T02:41:52;97614.28;;;3.52;44.98
15674;BME280;7937;48.090;16.212;2023-04-07T02:44:54;97451.34;;;2.41;45.64
15674;BME280;7937;48.090;16.212;2023-04-07T02:47:56;97657.53;;;3.84;45.20
15674;BME280;7937;48.090;16.212;2023-04-07T02:50:58;97611.66;;;3.52;44.79
15674;BME280;7937;48.090;16.212;2023-04-07T02:54:00;97400.63;;;1.99;45.77
15674;BME280;7937;48.090;16.212;2023-04-07T02:57:02;97569.56;;;3.04;47.13
15674;BME280;7937;48.090;16.212;2023-04-07T03:00:05;97656.44;;;3.58;46.92
15674;BME280;7937;48.090;16.212;2023-04-07T03:03:29;97554.13;;;2.88;47.02
15674;BME280;7937;48.090;16.212;2023-04-07T03:06:39;97523.25;;;2.62;46.77
15674;BME280;7937;48.090;16.212;2023-04-07T03:09:48;97402.31;;;1.79;47.49
15674;BME280;7937;48.090;16.212;2023-04-07T03:12:52;97554.63;;;2.70;48.73
15674;BME280;7937;48.090;16.212;2023-04-07T03:15:55;97571.00;;;2.65;50.47
15674;BME280;7937;48.090;16.212;2023-04-07T03:18:59;97542.66;;;2.61;48.77
15674;BME280;7937;48.090;16.212;2023-04-07T03:22:02;97646.97;;;3.16;47.89
15674;BME280;7937;48.090;16.212;2023-04-07T03:25:09;97620.09;;;2.86;48.90
15674;BME280;7937;48.090;16.212;2023-04-07T03:28:11;97551.88;;;2.43;49.49
15674;BME280;7937;48.090;16.212;2023-04-07T03:31:14;97636.38;;;3.03;48.12
15674;BME280;7937;48.090;16.212;2023-04-07T03:34:18;97414.63;;;1.50;48.41
15674;BME280;7937;48.090;16.212;2023-04-07T03:37:20;97556.13;;;2.44;48.06
15674;BME280;7937;48.090;16.212;2023-04-07T03:40:22;97531.75;;;2.29;48.72
15674;BME280;7937;48.090;16.212;2023-04-07T03:43:24;97545.09;;;2.27;48.96
15674;BME280;7937;48.090;16.212;2023-04-07T03:46:27;97608.38;;;2.54;50.35
15674;BME280;7937;48.090;16.212;2023-04-07T03:49:29;97597.75;;;2.41;50.54
15674;BME280;7937;48.090;16.212;2023-04-07T03:52:35;97530.19;;;1.78;51.76
15674;BME280;7937;48.090;16.212;2023-04-07T03:55:47;97543.16;;;1.87;51.53
15674;BME280;7937;48.090;16.212;2023-04-07T03:59:13;97593.81;;;2.02;52.98
15674;BME280;7937;48.090;16.212;2023-04-07T04:02:25;97596.44;;;2.02;52.58
15674;BME280;7937;48.090;16.212;2023-04-07T04:05:29;97336.00;;;0.43;51.39
15674;BME280;7937;48.090;16.212;2023-04-07T04:08:31;97512.06;;;1.62;52.15
15674;BME280;7937;48.090;16.212;2023-04-07T04:11:34;97536.63;;;1.76;51.54
15674;BME280;7937;48.090;16.212;2023-04-07T04:14:38;97652.13;;;2.62;50.95
15674;BME280;7937;48.090;16.212;2023-04-07T04:17:42;97483.38;;;1.61;50.68
15674;BME280;7937;48.090;16.212;2023-04-07T04:20:45;97597.66;;;2.27;51.65
15674;BME280;7937;48.090;16.212;2023-04-07T04:23:49;97585.28;;;2.21;50.25
15674;BME280;7937;48.090;16.212;2023-04-07T04:26:51;97587.53;;;2.24;50.72
15674;BME280;7937;48.090;16.212;2023-04-07T04:29:53;97318.75;;;0.70;50.10
15674;BME280;7937;48.090;16.212;2023-04-07T04:33:05;97443.56;;;1.57;50.06
15674;BME280;7937;48.090;16.212;2023-04-07T04:36:17;97581.06;;;2.55;48.41
15674;BME280;7937;48.090;16.212;2023-04-07T04:39:20;97403.53;;;1.48;49.38
15674;BME280;7937;48.090;16.212;2023-04-07T04:42:23;97581.69;;;2.57;49.37
15674;BME280;7937;48.090;16.212;2023-04-07T04:45:28;97609.22;;;2.61;50.07
15674;BME280;7937;48.090;16.212;2023-04-07T04:48:30;97638.00;;;3.04;49.49
15674;BME280;7937;48.090;16.212;2023-04-07T04:51:32;97592.28;;;2.70;49.61
15674;BME280;7937;48.090;16.212;2023-04-07T04:54:42;97474.50;;;1.90;50.15
15674;BME280;7937;48.090;16.212;2023-04-07T04:57:45;97430.19;;;1.52;48.60
15674;BME280;7937;48.090;16.212;2023-04-07T05:00:53;97637.03;;;3.12;49.27
15674;BME280;7937;48.090;16.212;2023-04-07T05:04:08;97612.44;;;2.91;48.09
15674;BME280;7937;48.090;16.212;2023-04-07T05:07:16;97591.16;;;2.86;47.97
15674;BME280;7937;48.090;16.212;2023-04-07T05:10:18;97608.75;;;3.33;46.31
15674;BME280;7937;48.090;16.212;2023-04-07T05:13:23;97552.88;;;2.83;47.13
15674;BME280;7937;48.090;16.212;2023-04-07T05:16:28;97387.03;;;1.89;46.13
15674;BME280;7937;48.090;16.212;2023-04-07T05:19:30;97549.91;;;3.00;46.33
15674;BME280;7937;48.090;16.212;2023-04-07T05:22:38;97585.06;;;3.33;46.86
15674;BME280;7937;48.090;16.212;2023-04-07T05:25:42;97545.28;;;3.02;47.18
15674;BME280;7937;48.090;16.212;2023-04-07T05:28:44;97347.41;;;1.91;46.40
15674;BME280;7937;48.090;16.212;2023-04-07T05:31:51;97529.13;;;3.25;45.81
15674;BME280;7937;48.090;16.212;2023-04-07T05:34:56;97511.06;;;3.02;45.68
15674;BME280;7937;48.090;16.212;2023-04-07T05:38:02;97512.53;;;3.11;46.17
15674;BME280;7937;48.090;16.212;2023-04-07T05:41:05;97484.16;;;3.13;45.07
15674;BME280;7937;48.090;16.212;2023-04-07T05:44:09;97466.72;;;2.92;44.79
15674;BME280;7937;48.090;16.212;2023-04-07T05:47:16;97513.00;;;3.48;44.12
15674;BME280;7937;48.090;16.212;2023-04-07T05:50:19;97598.75;;;4.03;44.82
15674;BME280;7937;48.090;16.212;2023-04-07T05:53:23;97593.31;;;4.25;43.66
15674;BME280;7937;48.090;16.212;2023-04-07T05:56:25;97337.75;;;2.52;44.57
15674;BME280;7937;48.090;16.212;2023-04-07T05:59:28;97560.03;;;3.97;43.54
15674;BME280;7937;48.090;16.212;2023-04-07T06:02:30;97551.31;;;3.83;44.73
15674;BME280;7937;48.090;16.212;2023-04-07T06:05:34;97652.94;;;4.59;44.83
15674;BME280;7937;48.090;16.212;2023-04-07T06:08:36;97467.41;;;3.34;43.82
15674;BME280;7937;48.090;16.212;2023-04-07T06:11:38;97563.09;;;4.14;43.83
15674;BME280;7937;48.090;16.212;2023-04-07T06:14:40;97657.59;;;4.70;43.80
15674;BME280;7937;48.090;16.212;2023-04-07T06:17:42;97550.13;;;4.06;43.21
15674;BME280;7937;48.090;16.212;2023-04-07T06:20:46;97584.38;;;4.32;42.84
15674;BME280;7937;48.090;16.212;2023-04-07T06:23:48;97655.56;;;4.65;44.07
15674;BME280;7937;48.090;16.212;2023-04-07T06:26:51;97524.38;;;3.75;44.66
15674;BME280;7937;48.090;16.212;2023-04-07T06:29:55;97602.84;;;4.26;44.32
15674;BME280;7937;48.090;16.212;2023-04-07T06:32:58;97544.44;;;3.89;44.62
15674;BME280;7937;48.090;16.212;2023-04-07T06:36:00;97594.75;;;4.14;44.39
15674;BME280;7937;48.090;16.212;2023-04-07T06:39:02;97567.75;;;4.05;43.02
15674;BME280;7937;48.090;16.212;2023-04-07T06:42:05;97553.78;;;4.05;42.82
15674;BME280;7937;48.090;16.212;2023-04-07T06:45:12;97577.69;;;4.36;42.86
15674;BME280;7937;48.090;16.212;2023-04-07T06:48:14;97654.38;;;4.68;43.62
15674;BME280;7937;48.090;16.212;2023-04-07T06:51:16;97593.50;;;4.23;43.72
15674;BME280;7937;48.090;16.212;2023-04-07T06:54:18;97601.63;;;4.35;43.79
15674;BME280;7937;48.090;16.212;2023-04-07T06:57:20;97614.59;;;4.36;44.19
15674;BME280;7937;48.090;16.212;2023-04-07T07:00:23;97555.81;;;4.09;43.93
15674;BME280;7937;48.090;16.212;2023-04-07T07:03:26;97649.44;;;4.91;43.58
15674;BME280;7937;48.090;16.212;2023-04-07T07:06:28;97551.53;;;4.22;43.10
15674;BME280;7937;48.090;16.212;2023-04-07T07:09:32;97569.16;;;4.21;44.41
15674;BME280;7937;48.090;16.212;2023-04-07T07:12:34;97498.84;;;3.95;43.66
15674;BME280;7937;48.090;16.212;2023-04-07T07:15:36;97603.03;;;4.51;43.27
15674;BME280;7937;48.090;16.212;2023-04-07T07:18:38;97538.94;;;4.37;41.96
15674;BME280;7937;48.090;16.212;2023-04-07T07:21:41;97512.00;;;4.15;43.05
15674;BME280;7937;48.090;16.212;2023-04-07T07:24:43;97509.16;;;4.03;43.86
15674;BME280;7937;48.090;16.212;2023-04-07T07:27:45;97545.63;;;4.39;43.87
15674;BME280;7937;48.090;16.212;2023-04-07T07:30:47;97488.88;;;3.97;43.71
15674;BME280;7937;48.090;16.212;2023-04-07T07:33:49;97582.50;;;4.53;44.67
15674;BME280;7937;48.090;16.212;2023-04-07T07:36:52;97630.13;;;5.04;43.21
15674;BME280;7937;48.090;16.212;2023-04-07T07:39:54;97657.28;;;5.25;43.21
15674;BME280;7937;48.090;16.212;2023-04-07T07:42:57;97613.47;;;5.04;42.15
15674;BME280;7937;48.090;16.212;2023-04-07T07:45:59;97613.66;;;5.02;42.10
15674;BME280;7937;48.090;16.212;2023-04-07T07:49:01;97474.91;;;3.90;42.70
15674;BME280;7937;48.090;16.212;2023-04-07T07:52:03;97587.75;;;4.79;42.92
15674;BME280;7937;48.090;16.212;2023-04-07T07:55:05;97668.94;;;5.55;41.99
15674;BME280;7937;48.090;16.212;2023-04-07T07:58:07;97597.19;;;5.07;42.58
15674;BME280;7937;48.090;16.212;2023-04-07T08:01:09;97583.47;;;4.85;42.48
15674;BME280;7937;48.090;16.212;2023-04-07T08:04:11;97490.44;;;4.45;42.42
15674;BME280;7937;48.090;16.212;2023-04-07T08:07:14;97493.88;;;4.45;41.97
15674;BME280;7937;48.090;16.212;2023-04-07T08:10:17;97587.84;;;5.11;41.67
15674;BME280;7937;48.090;16.212;2023-04-07T08:13:20;97612.91;;;5.40;41.86
15674;BME280;7937;48.090;16.212;2023-04-07T08:16:22;97636.19;;;5.63;41.44
15674;BME280;7937;48.090;16.212;2023-04-07T08:19:25;97635.53;;;5.74;40.74
15674;BME280;7937;48.090;16.212;2023-04-07T08:22:27;97502.59;;;5.04;41.51
15674;BME280;7937;48.090;16.212;2023-04-07T08:25:31;97432.25;;;4.78;41.21
15674;BME280;7937;48.090;16.212;2023-04-07T08:28:33;97630.00;;;6.14;41.30
15674;BME280;7937;48.090;16.212;2023-04-07T08:31:35;97665.88;;;6.60;39.66
15674;BME280;7937;48.090;16.212;2023-04-07T08:34:37;97617.88;;;6.31;40.78
15674;BME280;7937;48.090;16.212;2023-04-07T08:37:40;97660.38;;;6.86;39.03
15674;BME280;7937;48.090;16.212;2023-04-07T08:40:44;97601.56;;;6.34;38.43
15674;BME280;7937;48.090;16.212;2023-04-07T08:43:47;97666.72;;;6.79;38.92
15674;BME280;7937;48.090;16.212;2023-04-07T08:46:53;97547.97;;;5.95;39.08
15674;BME280;7937;48.090;16.212;2023-04-07T08:50:04;97658.53;;;6.87;39.78
15674;BME280;7937;48.090;16.212;2023-04-07T08:53:08;97672.41;;;6.82;39.11
15674;BME280;7937;48.090;16.212;2023-04-07T08:56:13;97588.78;;;6.31;39.09
15674;BME280;7937;48.090;16.212;2023-04-07T08:59:16;97573.34;;;6.28;40.19
15674;BME280;7937;48.090;16.212;2023-04-07T09:02:26;97561.50;;;6.56;38.01
15674;BME280;7937;48.090;16.212;2023-04-07T09:05:29;97437.69;;;6.03;39.22
15674;BME280;7937;48.090;16.212;2023-04-07T09:08:31;97589.59;;;7.12;37.09
15674;BME280;7937;48.090;16.212;2023-04-07T09:11:36;97468.84;;;6.37;37.55
15674;BME280;7937;48.090;16.212;2023-04-07T09:14:38;97630.22;;;7.72;38.15
15674;BME280;7937;48.090;16.212;2023-04-07T09:17:40;97646.88;;;7.80;37.11
15674;BME280;7937;48.090;16.212;2023-04-07T09:20:59;97610.19;;;7.76;37.21
15674;BME280;7937;48.090;16.212;2023-04-07T09:24:23;97576.38;;;7.72;36.14
15674;BME280;7937;48.090;16.212;2023-04-07T09:27:26;97629.78;;;8.17;36.36
15674;BME280;7937;48.090;16.212;2023-04-07T09:30:33;97511.47;;;7.33;35.69
15674;BME280;7937;48.090;16.212;2023-04-07T09:33:35;97559.16;;;7.63;35.72
15674;BME280;7937;48.090;16.212;2023-04-07T09:36:40;97376.13;;;6.32;35.38
15674;BME280;7937;48.090;16.212;2023-04-07T09:39:51;97553.44;;;7.66;35.50
15674;BME280;7937;48.090;16.212;2023-04-07T09:42:54;97640.06;;;8.25;35.30
15674;BME280;7937;48.090;16.212;2023-04-07T09:46:28;97573.13;;;8.00;34.61
15674;BME280;7937;48.090;16.212;2023-04-07T09:49:30;97580.56;;;7.80;34.35
15674;BME280;7937;48.090;16.212;2023-04-07T09:52:49;97491.16;;;7.15;34.84
15674;BME280;7937;48.090;16.212;2023-04-07T09:55:55;97538.75;;;7.52;34.36
15674;BME280;7937;48.090;16.212;2023-04-07T09:58:58;97553.03;;;7.50;34.01
15674;BME280;7937;48.090;16.212;2023-04-07T10:02:01;97511.81;;;7.24;35.19
15674;BME280;7937;48.090;16.212;2023-04-07T10:05:04;97614.94;;;7.86;34.52
15674;BME280;7937;48.090;16.212;2023-04-07T10:08:06;97496.88;;;7.12;34.84
15674;BME280;7937;48.090;16.212;2023-04-07T10:11:09;97540.09;;;7.42;34.64
15674;BME280;7937;48.090;16.212;2023-04-07T10:14:12;97532.13;;;7.42;35.86
15674;BME280;7937;48.090;16.212;2023-04-07T10:17:15;97616.88;;;8.09;34.74
15674;BME280;7937;48.090;16.212;2023-04-07T10:20:20;97567.31;;;7.80;35.06
15674;BME280;7937;48.090;16.212;2023-04-07T10:23:42;97621.50;;;8.14;35.36
15674;BME280;7937;48.090;16.212;2023-04-07T10:26:57;97616.94;;;8.02;34.31
15674;BME280;7937;48.090;16.212;2023-04-07T10:30:00;97528.03;;;7.28;35.27
15674;BME280;7937;48.090;16.212;2023-04-07T10:33:05;97574.59;;;7.54;34.68
15674;BME280;7937;48.090;16.212;2023-04-07T10:36:07;97614.31;;;7.72;34.62
15674;BME280;7937;48.090;16.212;2023-04-07T10:49:08;97500.94;;;7.44;36.50
15674;BME280;7937;48.090;16.212;2023-04-07T10:58:41;97514.91;;;7.63;35.03
15674;BME280;7937;48.090;16.212;2023-04-07T11:01:43;97509.06;;;7.31;36.47
15674;BME280;7937;48.090;16.212;2023-04-07T11:04:45;97559.94;;;7.52;35.97
15674;BME280;7937;48.090;16.212;2023-04-07T11:07:50;97444.22;;;7.04;36.12
15674;BME280;7937;48.090;16.212;2023-04-07T11:10:52;97439.81;;;6.97;36.00
15674;BME280;7937;48.090;16.212;2023-04-07T11:13:54;97528.72;;;7.54;38.40
15674;BME280;7937;48.090;16.212;2023-04-07T11:16:57;97493.03;;;7.26;36.67
15674;BME280;7937;48.090;16.212;2023-04-07T11:20:00;97596.69;;;8.08;36.50
15674;BME280;7937;48.090;16.212;2023-04-07T11:23:02;97454.19;;;7.20;36.11
15674;BME280;7937;48.090;16.212;2023-04-07T11:26:04;97552.66;;;7.77;36.27
15674;BME280;7937;48.090;16.212;2023-04-07T11:29:07;97493.31;;;7.48;36.72
15674;BME280;7937;48.090;16.212;2023-04-07T11:32:09;97588.34;;;8.05;36.21
15674;BME280;7937;48.090;16.212;2023-04-07T11:35:13;97545.28;;;7.79;37.16
15674;BME280;7937;48.090;16.212;2023-04-07T11:38:17;97503.59;;;7.56;35.52
15674;BME280;7937;48.090;16.212;2023-04-07T11:41:19;97594.03;;;8.20;35.95
15674;BME280;7937;48.090;16.212;2023-04-07T11:44:22;97428.94;;;7.06;36.06
15674;BME280;7937;48.090;16.212;2023-04-07T11:47:37;97516.81;;;7.74;35.63
15674;BME280;7937;48.090;16.212;2023-04-07T11:50:40;97591.31;;;8.38;35.34
15674;BME280;7937;48.090;16.212;2023-04-07T11:53:44;97594.19;;;8.37;35.92
15674;BME280;7937;48.090;16.212;2023-04-07T11:56:47;97611.41;;;8.46;35.82
15674;BME280;7937;48.090;16.212;2023-04-07T11:59:49;97514.66;;;8.07;34.59
15674;BME280;7937;48.090;16.212;2023-04-07T12:02:51;97500.00;;;8.04;34.97
15674;BME280;7937;48.090;16.212;2023-04-07T12:05:54;97549.28;;;8.47;34.85
15674;BME280;7937;48.090;16.212;2023-04-07T12:08:56;97555.28;;;8.66;34.20
15674;BME280;7937;48.090;16.212;2023-04-07T12:11:59;97433.22;;;7.84;34.85
15674;BME280;7937;48.090;16.212;2023-04-07T12:15:01;97498.84;;;8.12;34.96
15674;BME280;7937;48.090;16.212;2023-04-07T12:18:03;97469.78;;;8.05;35.38
15674;BME280;7937;48.090;16.212;2023-04-07T12:21:05;97558.22;;;8.52;34.64
15674;BME280;7937;48.090;16.212;2023-04-07T12:24:08;97555.19;;;8.61;34.80
15674;BME280;7937;48.090;16.212;2023-04-07T12:27:10;97471.63;;;8.28;34.61
15674;BME280;7937;48.090;16.212;2023-04-07T12:30:12;97343.75;;;7.32;34.49
15674;BME280;7937;48.090;16.212;2023-04-07T12:33:14;97489.41;;;8.51;35.72
15674;BME280;7937;48.090;16.212;2023-04-07T12:36:17;97510.75;;;8.68;35.12
15674;BME280;7937;48.090;16.212;2023-04-07T12:39:20;97402.19;;;8.19;35.72
15674;BME280;7937;48.090;16.212;2023-04-07T12:42:22;97579.78;;;9.32;34.03
15674;BME280;7937;48.090;16.212;2023-04-07T12:45:24;97496.66;;;8.67;34.67
15674;BME280;7937;48.090;16.212;2023-04-07T12:48:26;97511.16;;;8.76;34.22
15674;BME280;7937;48.090;16.212;2023-04-07T12:51:28;97526.69;;;9.08;35.15
15674;BME280;7937;48.090;16.212;2023-04-07T12:54:31;97539.47;;;9.23;33.89
15674;BME280;7937;48.090;16.212;2023-04-07T12:57:34;97503.69;;;9.14;34.11
15674;BME280;7937;48.090;16.212;2023-04-07T13:00:36;97574.66;;;9.70;34.00
15674;BME280;7937;48.090;16.212;2023-04-07T13:03:38;97381.50;;;8.45;35.53
15674;BME280;7937;48.090;16.212;2023-04-07T13:06:40;97530.56;;;9.29;34.89
15674;BME280;7937;48.090;16.212;2023-04-07T13:09:43;97353.41;;;7.97;33.86
15674;BME280;7937;48.090;16.212;2023-04-07T13:12:45;97521.94;;;9.22;34.30
15674;BME280;7937;48.090;16.212;2023-04-07T13:15:47;97373.91;;;8.25;35.02
15674;BME280;7937;48.090;16.212;2023-04-07T13:18:49;97431.69;;;8.58;34.83
15674;BME280;7937;48.090;16.212;2023-04-07T13:21:51;97574.81;;;9.64;34.10
15674;BME280;7937;48.090;16.212;2023-04-07T13:24:53;97542.00;;;9.29;34.24
15674;BME280;7937;48.090;16.212;2023-04-07T13:27:55;97525.84;;;9.19;34.01
15674;BME280;7937;48.090;16.212;2023-04-07T13:30:57;97480.53;;;8.86;34.59
15674;BME280;7937;48.090;16.212;2023-04-07T13:33:59;97526.34;;;9.16;35.78
15674;BME280;7937;48.090;16.212;2023-04-07T13:37:05;97485.91;;;8.74;34.48
15674;BME280;7937;48.090;16.212;2023-04-07T13:40:07;97456.97;;;8.49;35.38
15674;BME280;7937;48.090;16.212;2023-04-07T13:43:09;97477.47;;;8.65;35.24
15674;BME280;7937;48.090;16.212;2023-04-07T13:46:13;97424.22;;;8.08;35.54
15674;BME280;7937;48.090;16.212;2023-04-07T13:49:28;97494.25;;;8.54;36.49
15674;BME280;7937;48.090;16.212;2023-04-07T13:52:30;97328.22;;;7.59;35.93
15674;BME280;7937;48.090;16.212;2023-04-07T13:55:36;97319.31;;;7.54;36.09
15674;BME280;7937;48.090;16.212;2023-04-07T13:58:38;97449.94;;;8.43;35.97
15674;BME280;7937;48.090;16.212;2023-04-07T14:01:41;97473.22;;;8.64;37.09
15674;BME280;7937;48.090;16.212;2023-04-07T14:04:43;97453.13;;;8.57;35.98
15674;BME280;7937;48.090;16.212;2023-04-07T14:07:45;97531.47;;;8.94;35.29
15674;BME280;7937;48.090;16.212;2023-04-07T14:10:48;97363.09;;;7.91;35.82
15674;BME280;7937;48.090;16.212;2023-04-07T14:13:51;97555.34;;;9.18;35.84
15674;BME280;7937;48.090;16.212;2023-04-07T14:16:53;97464.91;;;8.72;35.41
15674;BME280;7937;48.090;16.212;2023-04-07T14:19:55;97474.34;;;8.80;35.57
15674;BME280;7937;48.090;16.212;2023-04-07T14:22:57;97414.50;;;8.49;35.70
15674;BME280;7937;48.090;16.212;2023-04-07T14:25:59;97546.13;;;9.37;35.15
15674;BME280;7937;48.090;16.212;2023-04-07T14:29:02;97507.28;;;9.08;35.18
15674;BME280;7937;48.090;16.212;2023-04-07T14:32:04;97500.75;;;8.98;35.53
15674;BME280;7937;48.090;16.212;2023-04-07T14:35:06;97512.03;;;9.34;35.77
15674;BME280;7937;48.090;16.212;2023-04-07T14:38:09;97460.88;;;8.98;35.29
15674;BME280;7937;48.090;16.212;2023-04-07T14:41:11;97549.41;;;9.56;34.94
15674;BME280;7937;48.090;16.212;2023-04-07T14:44:14;97549.09;;;9.41;36.01
15674;BME280;7937;48.090;16.212;2023-04-07T14:47:16;97510.06;;;9.01;35.78
15674;BME280;7937;48.090;16.212;2023-04-07T14:50:18;97499.38;;;8.84;36.10
15674;BME280;7937;48.090;16.212;2023-04-07T14:53:20;97486.09;;;8.84;36.77
15674;BME280;7937;48.090;16.212;2023-04-07T14:56:23;97411.84;;;8.49;36.33
15674;BME280;7937;48.090;16.212;2023-04-07T14:59:26;97560.78;;;9.40;35.53
15674;BME280;7937;48.090;16.212;2023-04-07T15:02:28;97510.66;;;8.91;36.20
15674;BME280;7937;48.090;16.212;2023-04-07T15:05:30;97488.22;;;8.70;36.58
15674;BME280;7937;48.090;16.212;2023-04-07T15:08:32;97462.53;;;8.47;37.16
15674;BME280;7937;48.090;16.212;2023-04-07T15:11:34;97482.47;;;8.50;36.84
15674;BME280;7937;48.090;16.212;2023-04-07T15:14:36;97462.72;;;8.34;37.24
15674;BME280;7937;48.090;16.212;2023-04-07T15:17:38;97520.66;;;8.61;37.08
15674;BME280;7937;48.090;16.212;2023-04-07T15:20:46;97476.94;;;8.28;37.98
15674;BME280;7937;48.090;16.212;2023-04-07T15:23:48;97443.25;;;8.05;37.00
15674;BME280;7937;48.090;16.212;2023-04-07T15:26:50;97521.13;;;8.46;37.26
15674;BME280;7937;48.090;16.212;2023-04-07T15:29:52;97380.97;;;7.72;37.32
15674;BME280;7937;48.090;16.212;2023-04-07T15:33:03;97414.78;;;8.00;37.50
15674;BME280;7937;48.090;16.212;2023-04-07T15:36:06;97558.38;;;8.98;37.53
15674;BME280;7937;48.090;16.212;2023-04-07T15:39:09;97478.56;;;8.52;37.33
15674;BME280;7937;48.090;16.212;2023-04-07T15:42:11;97458.63;;;8.38;37.20
15674;BME280;7937;48.090;16.212;2023-04-07T15:45:13;97529.22;;;8.63;37.08
15674;BME280;7937;48.090;16.212;2023-04-07T15:48:16;97515.03;;;8.57;37.46
15674;BME280;7937;48.090;16.212;2023-04-07T15:51:18;97428.94;;;7.83;38.03
15674;BME280;7937;48.090;16.212;2023-04-07T15:54:20;97305.13;;;7.13;38.13
15674;BME280;7937;48.090;16.212;2023-04-07T15:57:22;97515.03;;;8.45;38.26
15674;BME280;7937;48.090;16.212;2023-04-07T16:00:25;97358.47;;;7.28;38.58
15674;BME280;7937;48.090;16.212;2023-04-07T16:03:27;97498.25;;;8.21;39.37
15674;BME280;7937;48.090;16.212;2023-04-07T16:06:30;97565.25;;;8.59;39.78
15674;BME280;7937;48.090;16.212;2023-04-07T16:09:32;97328.72;;;7.03;41.12
15674;BME280;7937;48.090;16.212;2023-04-07T16:12:34;97474.59;;;7.73;43.71
15674;BME280;7937;48.090;16.212;2023-04-07T16:15:38;97575.59;;;8.25;41.74
15674;BME280;7937;48.090;16.212;2023-04-07T16:18:42;97288.72;;;6.39;41.61
15674;BME280;7937;48.090;16.212;2023-04-07T16:21:44;97449.97;;;7.31;41.92
15674;BME280;7937;48.090;16.212;2023-04-07T16:24:46;97577.06;;;8.09;41.67
15674;BME280;7937;48.090;16.212;2023-04-07T16:27:51;97554.00;;;7.68;41.90
15674;BME280;7937;48.090;16.212;2023-04-07T16:30:53;97458.84;;;7.36;40.70
15674;BME280;7937;48.090;16.212;2023-04-07T16:33:55;97289.06;;;6.12;40.79
15674;BME280;7937;48.090;16.212;2023-04-07T16:36:57;97593.41;;;7.94;41.29
15674;BME280;7937;48.090;16.212;2023-04-07T16:39:59;97588.91;;;7.95;41.20
15674;BME280;7937;48.090;16.212;2023-04-07T16:43:01;97526.06;;;7.54;41.67
15674;BME280;7937;48.090;16.212;2023-04-07T16:46:03;97559.00;;;7.76;41.04
15674;BME280;7937;48.090;16.212;2023-04-07T16:49:06;97438.97;;;6.85;41.20
15674;BME280;7937;48.090;16.212;2023-04-07T16:52:09;97557.88;;;7.54;41.48